sensor_id;sensor_type;location;lat;lon;timestamp;temperature;humidity
1179;DHT22;578;48.408;10.004;2023-11-21T00:01:52;6.50;99.90
1179;DHT22;578;48.408;10.004;2023-11-21T00:03:53;6.60;99.90
1179;DHT22;578;48.408;10.004;2023-11-21T00:05:56;6.60;99.90
1179;DHT22;578;48.408;10.004;2023-11-21T00:07:57;6.60;99.90
1179;DHT22;578;48.408;10.004;2023-11-21T00:09:59;6.60;99.90
1179;DHT22;578;48.408;10.004;2023-11-21T00:12:00;6.60;99.90
1179;DHT22;578;48.408;10.004;2023-11-21T00:14:03;6.60;99.90
1179;DHT22;578;48.408;10.004;2023-11-21T00:16:07;6.70;99.90
1179;DHT22;578;48.408;10.004;2023-11-21T00:18:09;6.70;99.90
1179;DHT22;578;48.408;10.004;2023-11-21T00:20:10;6.80;99.90
1179;DHT22;578;48.408;10.004;2023-11-21T00:22:14;6.80;99.90
1179;DHT22;578;48.408;10.004;2023-11-21T00:24:16;6.80;99.90
1179;DHT22;578;48.408;10.004;2023-11-21T00:26:18;6.70;99.90
1179;DHT22;578;48.408;10.004;2023-11-21T00:28:28;6.80;99.90
1179;DHT22;578;48.408;10.004;2023-11-21T00:30:31;6.80;99.90
1179;DHT22;578;48.408;10.004;2023-11-21T00:32:35;6.70;99.90
1179;DHT22;578;48.408;10.004;2023-11-21T00:34:37;6.70;99.90
1179;DHT22;578;48.408;10.004;2023-11-21T00:36:40;6.70;99.90
1179;DHT22;578;48.408;10.004;2023-11-21T00:38:42;6.70;99.90
1179;DHT22;578;48.408;10.004;2023-11-21T00:40:44;6.60;99.90
1179;DHT22;578;48.408;10.004;2023-11-21T00:42:45;6.70;99.90
1179;DHT22;578;48.408;10.004;2023-11-21T00:44:47;6.70;99.90
1179;DHT22;578;48.408;10.004;2023-11-21T00:46:49;6.70;99.90
1179;DHT22;578;48.408;10.004;2023-11-21T00:48:53;6.70;99.90
1179;DHT22;578;48.408;10.004;2023-11-21T00:50:55;6.70;99.90
1179;DHT22;578;48.408;10.004;2023-11-21T00:52:57;6.70;99.90
1179;DHT22;578;48.408;10.004;2023-11-21T00:54:59;6.70;99.90
1179;DHT22;578;48.408;10.004;2023-11-21T00:57:02;6.70;99.90
1179;DHT22;578;48.408;10.004;2023-11-21T00:59:04;6.70;99.90
1179;DHT22;578;48.408;10.004;2023-11-21T01:01:06;6.70;99.90
1179;DHT22;578;48.408;10.004;2023-11-21T01:03:08;6.70;99.90
1179;DHT22;578;48.408;10.004;2023-11-21T01:05:11;6.70;99.90
1179;DHT22;578;48.408;10.004;2023-11-21T01:07:14;6.70;99.90
1179;DHT22;578;48.408;10.004;2023-11-21T01:09:16;6.70;99.90
1179;DHT22;578;48.408;10.004;2023-11-21T01:11:19;6.70;99.90
1179;DHT22;578;48.408;10.004;2023-11-21T01:13:22;6.70;99.90
1179;DHT22;578;48.408;10.004;2023-11-21T01:15:23;6.70;99.90
1179;DHT22;578;48.408;10.004;2023-11-21T01:17:26;6.70;99.90
1179;DHT22;578;48.408;10.004;2023-11-21T01:19:28;6.70;99.90
1179;DHT22;578;48.408;10.004;2023-11-21T01:21:32;6.70;99.90
1179;DHT22;578;48.408;10.004;2023-11-21T01:23:34;6.70;99.90
1179;DHT22;578;48.408;10.004;2023-11-21T01:25:36;6.70;99.90
1179;DHT22;578;48.408;10.004;2023-11-21T01:27:37;6.70;99.90
1179;DHT22;578;48.408;10.004;2023-11-21T01:29:39;6.70;99.90
1179;DHT22;578;48.408;10.004;2023-11-21T01:31:41;6.70;99.90
1179;DHT22;578;48.408;10.004;2023-11-21T01:33:42;6.70;99.90
1179;DHT22;578;48.408;10.004;2023-11-21T01:35:44;6.70;99.90
1179;DHT22;578;48.408;10.004;2023-11-21T01:37:48;6.70;99.90
1179;DHT22;578;48.408;10.004;2023-11-21T01:39:49;6.70;99.90
1179;DHT22;578;48.408;10.004;2023-11-21T01:41:50;6.70;99.90
1179;DHT22;578;48.408;10.004;2023-11-21T01:43:52;6.60;99.90
1179;DHT22;578;48.408;10.004;2023-11-21T01:45:55;6.60;99.90
1179;DHT22;578;48.408;10.004;2023-11-21T01:47:57;6.60;99.90
1179;DHT22;578;48.408;10.004;2023-11-21T01:50:00;6.60;99.90
1179;DHT22;578;48.408;10.004;2023-11-21T01:52:03;6.60;99.90
1179;DHT22;578;48.408;10.004;2023-11-21T01:54:07;6.70;99.90
1179;DHT22;578;48.408;10.004;2023-11-21T01:56:10;6.70;99.90
1179;DHT22;578;48.408;10.004;2023-11-21T01:58:12;6.60;99.90
1179;DHT22;578;48.408;10.004;2023-11-21T02:00:14;6.60;99.90
1179;DHT22;578;48.408;10.004;2023-11-21T02:02:19;6.60;99.90
1179;DHT22;578;48.408;10.004;2023-11-21T02:04:21;6.60;99.90
1179;DHT22;578;48.408;10.004;2023-11-21T02:06:23;6.60;99.90
1179;DHT22;578;48.408;10.004;2023-11-21T02:08:26;6.70;99.90
1179;DHT22;578;48.408;10.004;2023-11-21T02:10:30;6.70;99.90
1179;DHT22;578;48.408;10.004;2023-11-21T02:12:32;6.70;99.90
1179;DHT22;578;48.408;10.004;2023-11-21T02:14:34;6.80;99.90
1179;DHT22;578;48.408;10.004;2023-11-21T02:16:37;6.80;99.90
1179;DHT22;578;48.408;10.004;2023-11-21T02:18:39;6.80;99.90
1179;DHT22;578;48.408;10.004;2023-11-21T02:20:40;6.80;99.90
1179;DHT22;578;48.408;10.004;2023-11-21T02:24:47;6.80;99.90
1179;DHT22;578;48.408;10.004;2023-11-21T02:26:49;6.80;99.90
1179;DHT22;578;48.408;10.004;2023-11-21T02:28:52;6.80;99.90
1179;DHT22;578;48.408;10.004;2023-11-21T02:30:54;6.80;99.90
1179;DHT22;578;48.408;10.004;2023-11-21T02:32:58;6.80;99.90
1179;DHT22;578;48.408;10.004;2023-11-21T02:35:00;6.70;99.90
1179;DHT22;578;48.408;10.004;2023-11-21T02:37:08;6.70;99.90
1179;DHT22;578;48.408;10.004;2023-11-21T02:39:11;6.70;99.90
1179;DHT22;578;48.408;10.004;2023-11-21T02:41:13;6.70;99.90
1179;DHT22;578;48.408;10.004;2023-11-21T02:43:15;6.60;99.90
1179;DHT22;578;48.408;10.004;2023-11-21T02:45:18;6.60;99.90
1179;DHT22;578;48.408;10.004;2023-11-21T02:47:19;6.50;99.90
1179;DHT22;578;48.408;10.004;2023-11-21T02:49:21;6.50;99.90
1179;DHT22;578;48.408;10.004;2023-11-21T02:51:22;6.50;99.90
1179;DHT22;578;48.408;10.004;2023-11-21T02:53:23;6.40;99.90
1179;DHT22;578;48.408;10.004;2023-11-21T02:55:25;6.30;99.90
1179;DHT22;578;48.408;10.004;2023-11-21T02:57:29;6.20;99.90
1179;DHT22;578;48.408;10.004;2023-11-21T02:59:31;6.20;99.90
1179;DHT22;578;48.408;10.004;2023-11-21T03:01:31;6.10;99.90
1179;DHT22;578;48.408;10.004;2023-11-21T03:03:33;6.00;99.90
1179;DHT22;578;48.408;10.004;2023-11-21T03:05:35;6.00;99.90
1179;DHT22;578;48.408;10.004;2023-11-21T03:07:38;5.90;99.90
1179;DHT22;578;48.408;10.004;2023-11-21T03:09:40;5.90;99.90
1179;DHT22;578;48.408;10.004;2023-11-21T03:11:42;5.90;99.90
1179;DHT22;578;48.408;10.004;2023-11-21T03:13:45;5.80;99.90
1179;DHT22;578;48.408;10.004;2023-11-21T03:15:46;5.90;99.90
1179;DHT22;578;48.408;10.004;2023-11-21T03:17:48;5.90;99.90
1179;DHT22;578;48.408;10.004;2023-11-21T03:19:50;5.80;99.90
1179;DHT22;578;48.408;10.004;2023-11-21T03:21:52;5.80;99.90
1179;DHT22;578;48.408;10.004;2023-11-21T03:23:53;5.80;99.90
1179;DHT22;578;48.408;10.004;2023-11-21T03:25:55;5.90;99.90
1179;DHT22;578;48.408;10.004;2023-11-21T03:27:56;6.00;99.90
1179;DHT22;578;48.408;10.004;2023-11-21T03:29:59;6.00;99.90
1179;DHT22;578;48.408;10.004;2023-11-21T03:32:00;6.10;99.90
1179;DHT22;578;48.408;10.004;2023-11-21T03:34:02;6.10;99.90
1179;DHT22;578;48.408;10.004;2023-11-21T03:36:04;6.10;99.90
1179;DHT22;578;48.408;10.004;2023-11-21T03:38:10;6.20;99.90
1179;DHT22;578;48.408;10.004;2023-11-21T03:40:13;6.20;99.90
1179;DHT22;578;48.408;10.004;2023-11-21T03:42:15;6.20;99.90
1179;DHT22;578;48.408;10.004;2023-11-21T03:44:15;6.20;99.90
1179;DHT22;578;48.408;10.004;2023-11-21T03:46:20;6.20;99.90
1179;DHT22;578;48.408;10.004;2023-11-21T03:48:22;6.20;99.90
1179;DHT22;578;48.408;10.004;2023-11-21T03:50:24;6.30;99.90
1179;DHT22;578;48.408;10.004;2023-11-21T03:52:25;6.40;99.90
1179;DHT22;578;48.408;10.004;2023-11-21T03:54:27;6.40;99.90
1179;DHT22;578;48.408;10.004;2023-11-21T03:56:29;6.40;99.90
1179;DHT22;578;48.408;10.004;2023-11-21T03:58:31;6.40;99.90
1179;DHT22;578;48.408;10.004;2023-11-21T04:00:33;6.40;99.90
1179;DHT22;578;48.408;10.004;2023-11-21T04:02:36;6.40;99.90
1179;DHT22;578;48.408;10.004;2023-11-21T04:04:38;6.50;99.90
1179;DHT22;578;48.408;10.004;2023-11-21T04:06:41;6.50;99.90
1179;DHT22;578;48.408;10.004;2023-11-21T04:08:43;6.50;99.90
1179;DHT22;578;48.408;10.004;2023-11-21T04:10:44;6.50;99.90
1179;DHT22;578;48.408;10.004;2023-11-21T04:12:46;6.60;99.90
1179;DHT22;578;48.408;10.004;2023-11-21T04:14:48;6.70;99.90
1179;DHT22;578;48.408;10.004;2023-11-21T04:16:49;6.70;99.90
1179;DHT22;578;48.408;10.004;2023-11-21T04:18:52;6.70;99.90
1179;DHT22;578;48.408;10.004;2023-11-21T04:20:54;6.70;99.90
1179;DHT22;578;48.408;10.004;2023-11-21T04:22:56;6.70;99.90
1179;DHT22;578;48.408;10.004;2023-11-21T04:24:58;6.70;99.90
1179;DHT22;578;48.408;10.004;2023-11-21T04:27:00;6.70;99.90
1179;DHT22;578;48.408;10.004;2023-11-21T04:29:03;6.70;99.90
1179;DHT22;578;48.408;10.004;2023-11-21T04:31:05;6.80;99.90
1179;DHT22;578;48.408;10.004;2023-11-21T04:33:07;6.80;99.90
1179;DHT22;578;48.408;10.004;2023-11-21T04:35:10;6.80;99.90
1179;DHT22;578;48.408;10.004;2023-11-21T04:37:11;6.80;99.90
1179;DHT22;578;48.408;10.004;2023-11-21T04:39:13;6.80;99.90
1179;DHT22;578;48.408;10.004;2023-11-21T04:41:15;6.80;99.90
1179;DHT22;578;48.408;10.004;2023-11-21T04:43:16;6.80;99.90
1179;DHT22;578;48.408;10.004;2023-11-21T04:45:18;6.80;99.90
1179;DHT22;578;48.408;10.004;2023-11-21T04:47:19;6.80;99.90
1179;DHT22;578;48.408;10.004;2023-11-21T04:49:20;6.80;99.90
1179;DHT22;578;48.408;10.004;2023-11-21T04:51:24;6.80;99.90
1179;DHT22;578;48.408;10.004;2023-11-21T04:53:25;6.80;99.90
1179;DHT22;578;48.408;10.004;2023-11-21T04:55:26;6.80;99.90
1179;DHT22;578;48.408;10.004;2023-11-21T04:57:29;6.80;99.90
1179;DHT22;578;48.408;10.004;2023-11-21T04:59:31;6.80;99.90
1179;DHT22;578;48.408;10.004;2023-11-21T05:01:33;6.80;99.90
1179;DHT22;578;48.408;10.004;2023-11-21T05:03:35;6.70;99.90
1179;DHT22;578;48.408;10.004;2023-11-21T05:05:39;6.70;99.90
1179;DHT22;578;48.408;10.004;2023-11-21T05:07:42;6.80;99.90
1179;DHT22;578;48.408;10.004;2023-11-21T05:09:44;6.80;99.90
1179;DHT22;578;48.408;10.004;2023-11-21T05:11:46;6.80;99.90
1179;DHT22;578;48.408;10.004;2023-11-21T05:13:48;6.80;99.90
1179;DHT22;578;48.408;10.004;2023-11-21T05:15:50;6.80;99.90
1179;DHT22;578;48.408;10.004;2023-11-21T05:17:52;6.80;99.90
1179;DHT22;578;48.408;10.004;2023-11-21T05:19:54;6.80;99.90
1179;DHT22;578;48.408;10.004;2023-11-21T05:21:55;6.80;99.90
1179;DHT22;578;48.408;10.004;2023-11-21T05:23:58;6.80;99.90
1179;DHT22;578;48.408;10.004;2023-11-21T05:26:00;6.80;99.90
1179;DHT22;578;48.408;10.004;2023-11-21T05:28:02;6.80;99.90
1179;DHT22;578;48.408;10.004;2023-11-21T05:30:05;6.90;99.90
1179;DHT22;578;48.408;10.004;2023-11-21T05:32:09;6.90;99.90
1179;DHT22;578;48.408;10.004;2023-11-21T05:34:10;6.90;99.90
1179;DHT22;578;48.408;10.004;2023-11-21T05:36:12;6.90;99.90
1179;DHT22;578;48.408;10.004;2023-11-21T05:38:13;6.90;99.90
1179;DHT22;578;48.408;10.004;2023-11-21T05:40:17;6.90;99.90
1179;DHT22;578;48.408;10.004;2023-11-21T05:42:18;6.90;99.90
1179;DHT22;578;48.408;10.004;2023-11-21T05:44:19;6.90;99.90
1179;DHT22;578;48.408;10.004;2023-11-21T05:46:21;6.90;99.90
1179;DHT22;578;48.408;10.004;2023-11-21T05:48:23;6.90;99.90
1179;DHT22;578;48.408;10.004;2023-11-21T05:50:26;6.90;99.90
1179;DHT22;578;48.408;10.004;2023-11-21T05:52:28;6.90;99.90
1179;DHT22;578;48.408;10.004;2023-11-21T05:54:30;6.90;99.90
1179;DHT22;578;48.408;10.004;2023-11-21T05:56:34;6.90;99.90
1179;DHT22;578;48.408;10.004;2023-11-21T05:58:36;6.90;99.90
1179;DHT22;578;48.408;10.004;2023-11-21T06:00:37;6.90;99.90
1179;DHT22;578;48.408;10.004;2023-11-21T06:02:39;6.80;99.90
1179;DHT22;578;48.408;10.004;2023-11-21T06:04:40;6.90;99.90
1179;DHT22;578;48.408;10.004;2023-11-21T06:06:42;6.90;99.90
1179;DHT22;578;48.408;10.004;2023-11-21T06:08:44;6.80;99.90
1179;DHT22;578;48.408;10.004;2023-11-21T06:10:46;6.80;99.90
1179;DHT22;578;48.408;10.004;2023-11-21T06:12:51;6.80;99.90
1179;DHT22;578;48.408;10.004;2023-11-21T06:14:53;6.70;99.90
1179;DHT22;578;48.408;10.004;2023-11-21T06:16:56;6.70;99.90
1179;DHT22;578;48.408;10.004;2023-11-21T06:18:58;6.70;99.90
1179;DHT22;578;48.408;10.004;2023-11-21T06:21:00;6.70;99.90
1179;DHT22;578;48.408;10.004;2023-11-21T06:23:01;6.70;99.90
1179;DHT22;578;48.408;10.004;2023-11-21T06:25:05;6.60;99.90
1179;DHT22;578;48.408;10.004;2023-11-21T06:27:06;6.60;99.90
1179;DHT22;578;48.408;10.004;2023-11-21T06:29:09;6.60;99.90
1179;DHT22;578;48.408;10.004;2023-11-21T06:31:11;6.60;99.90
1179;DHT22;578;48.408;10.004;2023-11-21T06:33:13;6.50;99.90
1179;DHT22;578;48.408;10.004;2023-11-21T06:35:14;6.50;99.90
1179;DHT22;578;48.408;10.004;2023-11-21T06:37:16;6.50;99.90
1179;DHT22;578;48.408;10.004;2023-11-21T06:39:17;6.50;99.90
1179;DHT22;578;48.408;10.004;2023-11-21T06:41:23;6.50;99.90
1179;DHT22;578;48.408;10.004;2023-11-21T06:43:24;6.50;99.90
1179;DHT22;578;48.408;10.004;2023-11-21T06:45:27;6.50;99.90
1179;DHT22;578;48.408;10.004;2023-11-21T06:47:29;6.50;99.90
1179;DHT22;578;48.408;10.004;2023-11-21T06:49:31;6.50;99.90
1179;DHT22;578;48.408;10.004;2023-11-21T06:51:33;6.50;99.90
1179;DHT22;578;48.408;10.004;2023-11-21T06:53:36;6.50;99.90
1179;DHT22;578;48.408;10.004;2023-11-21T06:55:38;6.50;99.90
1179;DHT22;578;48.408;10.004;2023-11-21T06:57:38;6.50;99.90
1179;DHT22;578;48.408;10.004;2023-11-21T06:59:40;6.60;99.90
1179;DHT22;578;48.408;10.004;2023-11-21T07:01:42;6.60;99.90
1179;DHT22;578;48.408;10.004;2023-11-21T07:03:45;6.50;99.90
1179;DHT22;578;48.408;10.004;2023-11-21T07:05:46;6.60;99.90
1179;DHT22;578;48.408;10.004;2023-11-21T07:07:48;6.60;99.90
1179;DHT22;578;48.408;10.004;2023-11-21T07:09:51;6.70;99.90
1179;DHT22;578;48.408;10.004;2023-11-21T07:11:52;6.70;99.90
1179;DHT22;578;48.408;10.004;2023-11-21T07:13:53;6.60;99.90
1179;DHT22;578;48.408;10.004;2023-11-21T07:15:55;6.70;99.90
1179;DHT22;578;48.408;10.004;2023-11-21T07:17:58;6.70;99.90
1179;DHT22;578;48.408;10.004;2023-11-21T07:20:00;6.70;99.90
1179;DHT22;578;48.408;10.004;2023-11-21T07:22:01;6.80;99.90
1179;DHT22;578;48.408;10.004;2023-11-21T07:24:04;6.90;99.90
1179;DHT22;578;48.408;10.004;2023-11-21T07:26:06;6.90;99.90
1179;DHT22;578;48.408;10.004;2023-11-21T07:28:09;7.00;99.90
1179;DHT22;578;48.408;10.004;2023-11-21T07:30:12;7.10;99.90
1179;DHT22;578;48.408;10.004;2023-11-21T07:32:14;7.10;99.90
1179;DHT22;578;48.408;10.004;2023-11-21T07:34:16;7.10;99.90
1179;DHT22;578;48.408;10.004;2023-11-21T07:36:19;7.20;99.90
1179;DHT22;578;48.408;10.004;2023-11-21T07:38:21;7.20;99.90
1179;DHT22;578;48.408;10.004;2023-11-21T07:40:23;7.20;99.90
1179;DHT22;578;48.408;10.004;2023-11-21T07:42:25;7.20;99.90
1179;DHT22;578;48.408;10.004;2023-11-21T07:44:27;7.20;99.90
1179;DHT22;578;48.408;10.004;2023-11-21T07:46:29;7.30;99.90
1179;DHT22;578;48.408;10.004;2023-11-21T07:48:31;7.30;99.90
1179;DHT22;578;48.408;10.004;2023-11-21T07:50:34;7.30;99.90
1179;DHT22;578;48.408;10.004;2023-11-21T07:52:36;7.40;99.90
1179;DHT22;578;48.408;10.004;2023-11-21T07:54:38;7.60;99.90
1179;DHT22;578;48.408;10.004;2023-11-21T07:56:39;7.60;99.90
1179;DHT22;578;48.408;10.004;2023-11-21T07:58:41;7.70;99.90
1179;DHT22;578;48.408;10.004;2023-11-21T08:00:42;7.70;99.90
1179;DHT22;578;48.408;10.004;2023-11-21T08:02:43;7.70;99.90
1179;DHT22;578;48.408;10.004;2023-11-21T08:04:46;7.70;99.90
1179;DHT22;578;48.408;10.004;2023-11-21T08:06:51;7.80;99.90
1179;DHT22;578;48.408;10.004;2023-11-21T08:08:52;7.80;99.90
1179;DHT22;578;48.408;10.004;2023-11-21T08:10:54;7.80;99.90
1179;DHT22;578;48.408;10.004;2023-11-21T08:12:57;7.80;99.90
1179;DHT22;578;48.408;10.004;2023-11-21T08:14:59;7.80;99.90
1179;DHT22;578;48.408;10.004;2023-11-21T08:17:03;7.80;99.90
1179;DHT22;578;48.408;10.004;2023-11-21T08:19:04;7.90;99.90
1179;DHT22;578;48.408;10.004;2023-11-21T08:21:06;7.90;99.90
1179;DHT22;578;48.408;10.004;2023-11-21T08:23:09;7.90;99.90
1179;DHT22;578;48.408;10.004;2023-11-21T08:25:11;8.00;99.90
1179;DHT22;578;48.408;10.004;2023-11-21T08:27:13;8.00;99.90
1179;DHT22;578;48.408;10.004;2023-11-21T08:29:16;8.10;99.90
1179;DHT22;578;48.408;10.004;2023-11-21T08:31:17;8.20;99.90
1179;DHT22;578;48.408;10.004;2023-11-21T08:33:19;8.40;99.90
1179;DHT22;578;48.408;10.004;2023-11-21T08:35:20;8.60;99.90
1179;DHT22;578;48.408;10.004;2023-11-21T08:37:22;8.80;99.90
1179;DHT22;578;48.408;10.004;2023-11-21T08:39:25;8.90;99.90
1179;DHT22;578;48.408;10.004;2023-11-21T08:41:27;8.90;99.90
1179;DHT22;578;48.408;10.004;2023-11-21T08:43:31;8.90;99.90
1179;DHT22;578;48.408;10.004;2023-11-21T08:45:32;8.90;99.90
1179;DHT22;578;48.408;10.004;2023-11-21T08:47:35;8.90;99.90
1179;DHT22;578;48.408;10.004;2023-11-21T08:49:37;9.00;99.90
1179;DHT22;578;48.408;10.004;2023-11-21T08:51:39;8.90;99.90
1179;DHT22;578;48.408;10.004;2023-11-21T08:53:41;9.00;99.90
1179;DHT22;578;48.408;10.004;2023-11-21T08:55:44;9.00;99.90
1179;DHT22;578;48.408;10.004;2023-11-21T08:57:46;8.90;99.90
1179;DHT22;578;48.408;10.004;2023-11-21T08:59:48;8.80;99.90
1179;DHT22;578;48.408;10.004;2023-11-21T09:01:55;8.80;99.90
1179;DHT22;578;48.408;10.004;2023-11-21T09:03:57;8.70;99.90
1179;DHT22;578;48.408;10.004;2023-11-21T09:05:59;8.60;99.90
1179;DHT22;578;48.408;10.004;2023-11-21T09:08:01;8.50;99.90
1179;DHT22;578;48.408;10.004;2023-11-21T09:10:03;8.50;99.90
1179;DHT22;578;48.408;10.004;2023-11-21T09:12:09;8.40;99.90
1179;DHT22;578;48.408;10.004;2023-11-21T09:14:11;8.40;99.90
1179;DHT22;578;48.408;10.004;2023-11-21T09:16:16;8.40;99.90
1179;DHT22;578;48.408;10.004;2023-11-21T09:18:18;8.30;99.90
1179;DHT22;578;48.408;10.004;2023-11-21T09:20:20;8.30;99.90
1179;DHT22;578;48.408;10.004;2023-11-21T09:22:23;8.20;99.90
1179;DHT22;578;48.408;10.004;2023-11-21T09:24:25;8.20;99.90
1179;DHT22;578;48.408;10.004;2023-11-21T09:26:27;8.30;99.90
1179;DHT22;578;48.408;10.004;2023-11-21T09:28:31;8.40;99.90
1179;DHT22;578;48.408;10.004;2023-11-21T09:30:33;8.60;99.90
1179;DHT22;578;48.408;10.004;2023-11-21T09:32:34;8.60;99.90
1179;DHT22;578;48.408;10.004;2023-11-21T09:34:38;8.70;99.90
1179;DHT22;578;48.408;10.004;2023-11-21T09:36:39;8.70;99.90
1179;DHT22;578;48.408;10.004;2023-11-21T09:38:41;8.80;99.90
1179;DHT22;578;48.408;10.004;2023-11-21T09:40:43;8.90;99.90
1179;DHT22;578;48.408;10.004;2023-11-21T09:42:50;9.10;99.90
1179;DHT22;578;48.408;10.004;2023-11-21T09:45:00;9.20;99.90
1179;DHT22;578;48.408;10.004;2023-11-21T09:47:05;9.20;99.90
1179;DHT22;578;48.408;10.004;2023-11-21T09:49:11;9.20;99.90
1179;DHT22;578;48.408;10.004;2023-11-21T09:51:15;9.40;99.90
1179;DHT22;578;48.408;10.004;2023-11-21T09:53:19;9.50;99.90
1179;DHT22;578;48.408;10.004;2023-11-21T09:55:21;9.70;99.90
1179;DHT22;578;48.408;10.004;2023-11-21T09:57:25;9.70;99.90
1179;DHT22;578;48.408;10.004;2023-11-21T09:59:30;9.70;99.90
1179;DHT22;578;48.408;10.004;2023-11-21T10:01:36;9.80;99.90
1179;DHT22;578;48.408;10.004;2023-11-21T10:03:38;9.60;99.90
1179;DHT22;578;48.408;10.004;2023-11-21T10:05:41;9.60;99.90
1179;DHT22;578;48.408;10.004;2023-11-21T10:07:43;9.50;99.90
1179;DHT22;578;48.408;10.004;2023-11-21T10:09:46;9.40;99.90
1179;DHT22;578;48.408;10.004;2023-11-21T10:11:49;9.60;99.90
1179;DHT22;578;48.408;10.004;2023-11-21T10:13:53;9.60;99.90
1179;DHT22;578;48.408;10.004;2023-11-21T10:15:57;9.60;99.90
1179;DHT22;578;48.408;10.004;2023-11-21T10:18:02;9.80;99.90
1179;DHT22;578;48.408;10.004;2023-11-21T10:20:07;9.90;99.90
1179;DHT22;578;48.408;10.004;2023-11-21T10:22:12;10.20;99.90
1179;DHT22;578;48.408;10.004;2023-11-21T10:24:15;10.30;99.90
1179;DHT22;578;48.408;10.004;2023-11-21T10:26:18;10.40;99.90
1179;DHT22;578;48.408;10.004;2023-11-21T10:28:21;10.40;99.90
1179;DHT22;578;48.408;10.004;2023-11-21T10:30:27;10.50;99.90
1179;DHT22;578;48.408;10.004;2023-11-21T10:32:29;10.60;99.90
1179;DHT22;578;48.408;10.004;2023-11-21T10:34:34;10.50;99.90
1179;DHT22;578;48.408;10.004;2023-11-21T10:36:36;10.40;99.90
1179;DHT22;578;48.408;10.004;2023-11-21T10:38:42;10.50;99.90
1179;DHT22;578;48.408;10.004;2023-11-21T10:40:46;10.30;99.90
1179;DHT22;578;48.408;10.004;2023-11-21T10:42:48;10.40;99.90
1179;DHT22;578;48.408;10.004;2023-11-21T10:44:50;10.30;99.90
1179;DHT22;578;48.408;10.004;2023-11-21T10:46:53;10.20;99.90
1179;DHT22;578;48.408;10.004;2023-11-21T10:48:57;10.30;99.90
1179;DHT22;578;48.408;10.004;2023-11-21T10:50:59;10.30;99.90
1179;DHT22;578;48.408;10.004;2023-11-21T10:53:02;10.40;99.90
1179;DHT22;578;48.408;10.004;2023-11-21T10:55:16;10.60;99.90
1179;DHT22;578;48.408;10.004;2023-11-21T10:57:18;10.70;99.90
1179;DHT22;578;48.408;10.004;2023-11-21T10:59:22;11.00;99.90
1179;DHT22;578;48.408;10.004;2023-11-21T11:01:26;11.20;99.90
1179;DHT22;578;48.408;10.004;2023-11-21T11:03:30;11.30;99.90
1179;DHT22;578;48.408;10.004;2023-11-21T11:05:34;11.60;99.90
1179;DHT22;578;48.408;10.004;2023-11-21T11:07:39;11.90;99.90
1179;DHT22;578;48.408;10.004;2023-11-21T11:09:44;12.00;99.90
1179;DHT22;578;48.408;10.004;2023-11-21T11:11:48;12.10;99.90
1179;DHT22;578;48.408;10.004;2023-11-21T11:13:49;12.10;99.90
1179;DHT22;578;48.408;10.004;2023-11-21T11:15:57;12.10;99.90
1179;DHT22;578;48.408;10.004;2023-11-21T11:18:00;12.10;99.90
1179;DHT22;578;48.408;10.004;2023-11-21T11:20:04;12.10;99.90
1179;DHT22;578;48.408;10.004;2023-11-21T11:22:15;12.30;99.90
1179;DHT22;578;48.408;10.004;2023-11-21T11:24:39;12.10;99.90
1179;DHT22;578;48.408;10.004;2023-11-21T11:26:47;12.20;99.90
1179;DHT22;578;48.408;10.004;2023-11-21T11:28:57;12.30;99.90
1179;DHT22;578;48.408;10.004;2023-11-21T11:31:08;12.50;99.90
1179;DHT22;578;48.408;10.004;2023-11-21T11:33:21;12.40;99.90
1179;DHT22;578;48.408;10.004;2023-11-21T11:35:33;12.30;99.90
1179;DHT22;578;48.408;10.004;2023-11-21T11:37:35;12.40;99.90
1179;DHT22;578;48.408;10.004;2023-11-21T11:39:41;12.30;99.90
1179;DHT22;578;48.408;10.004;2023-11-21T11:41:44;12.20;99.90
1179;DHT22;578;48.408;10.004;2023-11-21T11:43:47;11.60;96.70
1179;DHT22;578;48.408;10.004;2023-11-21T11:45:49;11.40;97.70
1179;DHT22;578;48.408;10.004;2023-11-21T11:47:56;11.30;99.90
1179;DHT22;578;48.408;10.004;2023-11-21T11:50:01;11.10;99.90
1179;DHT22;578;48.408;10.004;2023-11-21T11:52:35;11.00;99.90
1179;DHT22;578;48.408;10.004;2023-11-21T11:54:39;11.10;99.90
1179;DHT22;578;48.408;10.004;2023-11-21T11:56:42;10.90;99.90
1179;DHT22;578;48.408;10.004;2023-11-21T11:58:45;10.90;99.90
1179;DHT22;578;48.408;10.004;2023-11-21T12:00:50;10.70;99.90
1179;DHT22;578;48.408;10.004;2023-11-21T12:02:55;10.80;99.90
1179;DHT22;578;48.408;10.004;2023-11-21T12:04:57;10.60;99.90
1179;DHT22;578;48.408;10.004;2023-11-21T12:07:01;10.50;99.90
1179;DHT22;578;48.408;10.004;2023-11-21T12:09:06;10.30;99.90
1179;DHT22;578;48.408;10.004;2023-11-21T12:11:09;10.40;99.90
1179;DHT22;578;48.408;10.004;2023-11-21T12:13:14;10.50;99.90
1179;DHT22;578;48.408;10.004;2023-11-21T12:15:16;10.50;99.90
1179;DHT22;578;48.408;10.004;2023-11-21T12:17:17;10.50;99.90
1179;DHT22;578;48.408;10.004;2023-11-21T12:19:19;10.40;99.90
1179;DHT22;578;48.408;10.004;2023-11-21T12:21:22;10.30;99.90
1179;DHT22;578;48.408;10.004;2023-11-21T12:23:24;10.00;99.90
1179;DHT22;578;48.408;10.004;2023-11-21T12:25:27;10.00;99.90
1179;DHT22;578;48.408;10.004;2023-11-21T12:27:31;10.00;99.90
1179;DHT22;578;48.408;10.004;2023-11-21T12:29:32;9.90;99.90
1179;DHT22;578;48.408;10.004;2023-11-21T12:31:34;9.60;99.90
1179;DHT22;578;48.408;10.004;2023-11-21T12:33:36;9.50;99.90
1179;DHT22;578;48.408;10.004;2023-11-21T12:35:38;9.50;99.90
1179;DHT22;578;48.408;10.004;2023-11-21T12:37:41;9.40;99.90
1179;DHT22;578;48.408;10.004;2023-11-21T12:39:43;9.40;99.90
1179;DHT22;578;48.408;10.004;2023-11-21T12:41:45;9.50;99.90
1179;DHT22;578;48.408;10.004;2023-11-21T12:43:48;9.50;99.90
1179;DHT22;578;48.408;10.004;2023-11-21T12:45:50;9.50;99.90
1179;DHT22;578;48.408;10.004;2023-11-21T12:47:55;9.60;99.90
1179;DHT22;578;48.408;10.004;2023-11-21T12:49:57;9.70;99.90
1179;DHT22;578;48.408;10.004;2023-11-21T12:52:02;9.60;99.90
1179;DHT22;578;48.408;10.004;2023-11-21T12:54:06;9.70;99.90
1179;DHT22;578;48.408;10.004;2023-11-21T12:56:10;9.60;99.90
1179;DHT22;578;48.408;10.004;2023-11-21T12:58:12;9.60;99.90
1179;DHT22;578;48.408;10.004;2023-11-21T13:00:16;9.60;99.90
1179;DHT22;578;48.408;10.004;2023-11-21T13:02:27;9.60;99.90
1179;DHT22;578;48.408;10.004;2023-11-21T13:04:32;9.70;99.90
1179;DHT22;578;48.408;10.004;2023-11-21T13:06:35;9.80;99.90
1179;DHT22;578;48.408;10.004;2023-11-21T13:08:41;9.70;99.90
1179;DHT22;578;48.408;10.004;2023-11-21T13:10:44;9.70;99.90
1179;DHT22;578;48.408;10.004;2023-11-21T13:12:47;9.80;99.90
1179;DHT22;578;48.408;10.004;2023-11-21T13:14:48;10.00;99.90
1179;DHT22;578;48.408;10.004;2023-11-21T13:16:51;10.00;99.90
1179;DHT22;578;48.408;10.004;2023-11-21T13:18:54;10.00;99.90
1179;DHT22;578;48.408;10.004;2023-11-21T13:20:57;10.00;99.90
1179;DHT22;578;48.408;10.004;2023-11-21T13:22:58;9.80;99.90
1179;DHT22;578;48.408;10.004;2023-11-21T13:25:01;9.90;99.90
1179;DHT22;578;48.408;10.004;2023-11-21T13:27:07;9.90;99.90
1179;DHT22;578;48.408;10.004;2023-11-21T13:29:10;9.90;99.90
1179;DHT22;578;48.408;10.004;2023-11-21T13:31:13;9.80;99.90
1179;DHT22;578;48.408;10.004;2023-11-21T13:33:27;9.80;99.90
1179;DHT22;578;48.408;10.004;2023-11-21T13:35:29;9.80;99.90